Guernsey Island, United Kingdom
Current Conditions -  °F | °C
As of 8:50 AM on Wednesday 22 Oct 2014 (Local Time) from EGJB Reporting Station
Broken Clouds Broken Clouds  
Wind Chill: 54°   Ceiling: 3200
Heat Index: 54°   Visibility: 6mi
Dew Point: 45°   Wind: 13mph
Humidity: 72%   Direction: 300°WNW
Pressure: 30.39"   Gusts: NA
Location:  49.43°N, 2.6°W
Report Text: EGJB 220750Z 30011KT 9999 BKN032 12/07 Q1029
Loading
Personal Weather Stations






























Interactive Weather Map
Tropical Storm Tracking
New forecast layout! Learn more

10-Day Weather Forecast

Advertisements
Track Severe Weather on mobile